sensor_id;sensor_type;location;lat;lon;timestamp;temperature;humidity
74484;SHT31;62942;52.462;10.846;2022-09-14T00:00:35;12.2;91.9
74484;SHT31;62942;52.462;10.846;2022-09-14T00:01:45;12.2;91.8
74484;SHT31;62942;52.462;10.846;2022-09-14T00:02:45;12.2;91.8
74484;SHT31;62942;52.462;10.846;2022-09-14T00:03:55;12.2;91.7
74484;SHT31;62942;52.462;10.846;2022-09-14T00:04:54;12.2;91.7
74484;SHT31;62942;52.462;10.846;2022-09-14T00:06:05;12.2;91.7
74484;SHT31;62942;52.462;10.846;2022-09-14T00:07:15;12.2;91.7
74484;SHT31;62942;52.462;10.846;2022-09-14T00:08:25;12.2;91.7
74484;SHT31;62942;52.462;10.846;2022-09-14T00:09:34;12.2;91.6
74484;SHT31;62942;52.462;10.846;2022-09-14T00:10:45;12.1;91.6
74484;SHT31;62942;52.462;10.846;2022-09-14T00:11:55;12.1;91.6
74484;SHT31;62942;52.462;10.846;2022-09-14T00:12:54;12.1;91.6
74484;SHT31;62942;52.462;10.846;2022-09-14T00:14:05;12.1;91.6
74484;SHT31;62942;52.462;10.846;2022-09-14T00:15:05;12;91.8
74484;SHT31;62942;52.462;10.846;2022-09-14T00:16:15;12;91.8
74484;SHT31;62942;52.462;10.846;2022-09-14T00:17:15;12;91.8
74484;SHT31;62942;52.462;10.846;2022-09-14T00:18:24;11.9;91.9
74484;SHT31;62942;52.462;10.846;2022-09-14T00:19:25;11.9;91.9
74484;SHT31;62942;52.462;10.846;2022-09-14T00:20:24;11.9;92
74484;SHT31;62942;52.462;10.846;2022-09-14T00:21:35;11.8;92.1
74484;SHT31;62942;52.462;10.846;2022-09-14T00:22:44;11.8;92.2
74484;SHT31;62942;52.462;10.846;2022-09-14T00:23:45;11.8;92.3
74484;SHT31;62942;52.462;10.846;2022-09-14T00:24:54;11.8;92.3
74484;SHT31;62942;52.462;10.846;2022-09-14T00:25:54;11.8;92.3
74484;SHT31;62942;52.462;10.846;2022-09-14T00:27:04;11.7;92.3
74484;SHT31;62942;52.462;10.846;2022-09-14T00:28:04;11.7;92.4
74484;SHT31;62942;52.462;10.846;2022-09-14T00:29:14;11.7;92.5
74484;SHT31;62942;52.462;10.846;2022-09-14T00:30:15;11.7;92.6
74484;SHT31;62942;52.462;10.846;2022-09-14T00:31:25;11.6;92.5
74484;SHT31;62942;52.462;10.846;2022-09-14T00:32:34;11.6;92.5
74484;SHT31;62942;52.462;10.846;2022-09-14T00:33:45;11.5;92.5
74484;SHT31;62942;52.462;10.846;2022-09-14T00:34:44;11.5;92.6
74484;SHT31;62942;52.462;10.846;2022-09-14T00:35:54;11.5;92.7
74484;SHT31;62942;52.462;10.846;2022-09-14T00:36:55;11.5;92.9
74484;SHT31;62942;52.462;10.846;2022-09-14T00:38:04;11.5;93.1
74484;SHT31;62942;52.462;10.846;2022-09-14T00:39:05;11.4;93.2
74484;SHT31;62942;52.462;10.846;2022-09-14T00:40:15;11.4;93.3
74484;SHT31;62942;52.462;10.846;2022-09-14T00:41:25;11.4;93.4
74484;SHT31;62942;52.462;10.846;2022-09-14T00:42:24;11.3;93.4
74484;SHT31;62942;52.462;10.846;2022-09-14T00:43:49;11.3;93.3
74484;SHT31;62942;52.462;10.846;2022-09-14T00:45:01;11.3;93.5
74484;SHT31;62942;52.462;10.846;2022-09-14T00:45:55;11.3;93.7
74484;SHT31;62942;52.462;10.846;2022-09-14T00:46:56;11.3;93.8
74484;SHT31;62942;52.462;10.846;2022-09-14T00:48:04;11.3;94
74484;SHT31;62942;52.462;10.846;2022-09-14T00:49:15;11.2;94.1
74484;SHT31;62942;52.462;10.846;2022-09-14T00:50:14;11.2;94.1
74484;SHT31;62942;52.462;10.846;2022-09-14T00:51:24;11.2;94.1
74484;SHT31;62942;52.462;10.846;2022-09-14T00:52:36;11.2;94
74484;SHT31;62942;52.462;10.846;2022-09-14T00:53:34;11.2;94
74484;SHT31;62942;52.462;10.846;2022-09-14T00:54:45;11.2;94
74484;SHT31;62942;52.462;10.846;2022-09-14T00:55:54;11.1;94
74484;SHT31;62942;52.462;10.846;2022-09-14T00:57:04;11.2;94.1
74484;SHT31;62942;52.462;10.846;2022-09-14T00:58:04;11.1;94.1
74484;SHT31;62942;52.462;10.846;2022-09-14T00:59:15;11.1;94.1
74484;SHT31;62942;52.462;10.846;2022-09-14T01:00:26;11.2;94.2
74484;SHT31;62942;52.462;10.846;2022-09-14T01:01:34;11.2;94.2
74484;SHT31;62942;52.462;10.846;2022-09-14T01:02:34;11.2;94.2
74484;SHT31;62942;52.462;10.846;2022-09-14T01:03:44;11.2;94.3
74484;SHT31;62942;52.462;10.846;2022-09-14T01:04:54;11.2;94.4
74484;SHT31;62942;52.462;10.846;2022-09-14T01:06:07;11.2;94.4
74484;SHT31;62942;52.462;10.846;2022-09-14T01:07:05;11.2;94.4
74484;SHT31;62942;52.462;10.846;2022-09-14T01:08:18;11.2;94.5
74484;SHT31;62942;52.462;10.846;2022-09-14T01:09:25;11.2;94.5
74484;SHT31;62942;52.462;10.846;2022-09-14T01:10:38;11.2;94.6
74484;SHT31;62942;52.462;10.846;2022-09-14T01:11:38;11.2;94.7
74484;SHT31;62942;52.462;10.846;2022-09-14T01:12:46;11.2;94.8
74484;SHT31;62942;52.462;10.846;2022-09-14T01:13:56;11.2;94.9
74484;SHT31;62942;52.462;10.846;2022-09-14T01:15:05;11.2;94.9
74484;SHT31;62942;52.462;10.846;2022-09-14T01:16:17;11.2;94.9
74484;SHT31;62942;52.462;10.846;2022-09-14T01:17:26;11.2;94.8
74484;SHT31;62942;52.462;10.846;2022-09-14T01:18:26;11.2;94.8
74484;SHT31;62942;52.462;10.846;2022-09-14T01:19:40;11.2;94.7
74484;SHT31;62942;52.462;10.846;2022-09-14T01:20:46;11.2;94.7
74484;SHT31;62942;52.462;10.846;2022-09-14T01:21:54;11.2;94.6
74484;SHT31;62942;52.462;10.846;2022-09-14T01:23:07;11.2;94.6
74484;SHT31;62942;52.462;10.846;2022-09-14T01:24:15;11.2;94.5
74484;SHT31;62942;52.462;10.846;2022-09-14T01:25:27;11.2;94.6
74484;SHT31;62942;52.462;10.846;2022-09-14T01:26:42;11.2;94.6
74484;SHT31;62942;52.462;10.846;2022-09-14T01:27:44;11.2;94.6
74484;SHT31;62942;52.462;10.846;2022-09-14T01:28:55;11.2;94.6
74484;SHT31;62942;52.462;10.846;2022-09-14T01:30:05;11.1;94.6
74484;SHT31;62942;52.462;10.846;2022-09-14T01:31:15;11.2;94.7
74484;SHT31;62942;52.462;10.846;2022-09-14T01:32:25;11.2;94.8
74484;SHT31;62942;52.462;10.846;2022-09-14T01:33:26;11.2;94.8
74484;SHT31;62942;52.462;10.846;2022-09-14T01:34:25;11.1;94.8
74484;SHT31;62942;52.462;10.846;2022-09-14T01:35:35;11.2;94.8
74484;SHT31;62942;52.462;10.846;2022-09-14T01:36:35;11.1;94.9
74484;SHT31;62942;52.462;10.846;2022-09-14T01:37:45;11.1;94.9
74484;SHT31;62942;52.462;10.846;2022-09-14T01:38:45;11.1;94.9
74484;SHT31;62942;52.462;10.846;2022-09-14T01:39:45;11.1;94.9
74484;SHT31;62942;52.462;10.846;2022-09-14T01:40:54;11.1;94.9
74484;SHT31;62942;52.462;10.846;2022-09-14T01:42:04;11.1;94.9
74484;SHT31;62942;52.462;10.846;2022-09-14T01:43:16;11.1;94.9
74484;SHT31;62942;52.462;10.846;2022-09-14T01:44:15;11;94.9
74484;SHT31;62942;52.462;10.846;2022-09-14T01:45:24;11;95
74484;SHT31;62942;52.462;10.846;2022-09-14T01:46:25;11;95
74484;SHT31;62942;52.462;10.846;2022-09-14T01:47:26;11;95
74484;SHT31;62942;52.462;10.846;2022-09-14T01:48:36;11;94.9
74484;SHT31;62942;52.462;10.846;2022-09-14T01:49:45;11;94.9
74484;SHT31;62942;52.462;10.846;2022-09-14T01:50:55;11;94.9
74484;SHT31;62942;52.462;10.846;2022-09-14T01:52:06;11;94.9
74484;SHT31;62942;52.462;10.846;2022-09-14T01:53:15;10.9;94.9
74484;SHT31;62942;52.462;10.846;2022-09-14T01:54:25;11;95
74484;SHT31;62942;52.462;10.846;2022-09-14T01:55:35;10.9;95.1
74484;SHT31;62942;52.462;10.846;2022-09-14T01:56:47;11;95.2
74484;SHT31;62942;52.462;10.846;2022-09-14T01:57:56;10.9;95.2
74484;SHT31;62942;52.462;10.846;2022-09-14T01:58:55;10.9;95.3
74484;SHT31;62942;52.462;10.846;2022-09-14T02:00:06;10.9;95.4
74484;SHT31;62942;52.462;10.846;2022-09-14T02:01:16;10.9;95.3
74484;SHT31;62942;52.462;10.846;2022-09-14T02:02:15;10.9;95.3
74484;SHT31;62942;52.462;10.846;2022-09-14T02:03:25;10.9;95.3
74484;SHT31;62942;52.462;10.846;2022-09-14T02:04:35;10.9;95.3
74484;SHT31;62942;52.462;10.846;2022-09-14T02:05:46;10.9;95.4
74484;SHT31;62942;52.462;10.846;2022-09-14T02:06:45;10.9;95.3
74484;SHT31;62942;52.462;10.846;2022-09-14T02:07:54;10.9;95.4
74484;SHT31;62942;52.462;10.846;2022-09-14T02:09:05;10.9;95.4
74484;SHT31;62942;52.462;10.846;2022-09-14T02:10:05;10.9;95.4
74484;SHT31;62942;52.462;10.846;2022-09-14T02:11:14;10.9;95.4
74484;SHT31;62942;52.462;10.846;2022-09-14T02:12:24;10.9;95.4
74484;SHT31;62942;52.462;10.846;2022-09-14T02:13:34;10.9;95.4
74484;SHT31;62942;52.462;10.846;2022-09-14T02:14:45;10.8;95.4
74484;SHT31;62942;52.462;10.846;2022-09-14T02:15:54;10.8;95.5
74484;SHT31;62942;52.462;10.846;2022-09-14T02:17:04;10.8;95.5
74484;SHT31;62942;52.462;10.846;2022-09-14T02:18:14;10.8;95.5
74484;SHT31;62942;52.462;10.846;2022-09-14T02:19:24;10.8;95.6
74484;SHT31;62942;52.462;10.846;2022-09-14T02:20:38;10.8;95.6
74484;SHT31;62942;52.462;10.846;2022-09-14T02:21:44;10.8;95.7
74484;SHT31;62942;52.462;10.846;2022-09-14T02:22:54;10.8;95.7
74484;SHT31;62942;52.462;10.846;2022-09-14T02:24:04;10.8;95.7
74484;SHT31;62942;52.462;10.846;2022-09-14T02:25:14;10.8;95.7
74484;SHT31;62942;52.462;10.846;2022-09-14T02:26:25;10.8;95.7
74484;SHT31;62942;52.462;10.846;2022-09-14T02:27:34;10.7;95.7
74484;SHT31;62942;52.462;10.846;2022-09-14T02:28:44;10.7;95.7
74484;SHT31;62942;52.462;10.846;2022-09-14T02:29:54;10.7;95.7
74484;SHT31;62942;52.462;10.846;2022-09-14T02:31:06;10.7;95.7
74484;SHT31;62942;52.462;10.846;2022-09-14T02:32:09;10.7;95.7
74484;SHT31;62942;52.462;10.846;2022-09-14T02:33:05;10.7;95.8
74484;SHT31;62942;52.462;10.846;2022-09-14T02:34:17;10.7;95.8
74484;SHT31;62942;52.462;10.846;2022-09-14T02:35:25;10.7;95.8
74484;SHT31;62942;52.462;10.846;2022-09-14T02:36:40;10.7;95.8
74484;SHT31;62942;52.462;10.846;2022-09-14T02:37:47;10.7;95.8
74484;SHT31;62942;52.462;10.846;2022-09-14T02:38:45;10.7;95.8
74484;SHT31;62942;52.462;10.846;2022-09-14T02:39:46;10.7;95.8
74484;SHT31;62942;52.462;10.846;2022-09-14T02:40:56;10.7;95.8
74484;SHT31;62942;52.462;10.846;2022-09-14T02:42:07;10.7;95.8
74484;SHT31;62942;52.462;10.846;2022-09-14T02:43:18;10.6;95.8
74484;SHT31;62942;52.462;10.846;2022-09-14T02:44:34;10.6;95.9
74484;SHT31;62942;52.462;10.846;2022-09-14T02:45:26;10.6;95.9
74484;SHT31;62942;52.462;10.846;2022-09-14T02:46:35;10.6;95.9
74484;SHT31;62942;52.462;10.846;2022-09-14T02:47:48;10.6;96
74484;SHT31;62942;52.462;10.846;2022-09-14T02:48:56;10.6;96
74484;SHT31;62942;52.462;10.846;2022-09-14T02:50:06;10.6;96
74484;SHT31;62942;52.462;10.846;2022-09-14T02:51:06;10.6;96
74484;SHT31;62942;52.462;10.846;2022-09-14T02:52:15;10.5;96
74484;SHT31;62942;52.462;10.846;2022-09-14T02:53:25;10.5;95.9
74484;SHT31;62942;52.462;10.846;2022-09-14T02:54:36;10.5;95.9
74484;SHT31;62942;52.462;10.846;2022-09-14T02:55:35;10.5;95.8
74484;SHT31;62942;52.462;10.846;2022-09-14T02:56:44;10.4;95.8
74484;SHT31;62942;52.462;10.846;2022-09-14T02:57:58;10.4;95.8
74484;SHT31;62942;52.462;10.846;2022-09-14T02:59:04;10.4;95.8
74484;SHT31;62942;52.462;10.846;2022-09-14T03:00:14;10.4;95.8
74484;SHT31;62942;52.462;10.846;2022-09-14T03:01:24;10.4;95.9
74484;SHT31;62942;52.462;10.846;2022-09-14T03:02:24;10.4;95.9
74484;SHT31;62942;52.462;10.846;2022-09-14T03:03:34;10.4;96
74484;SHT31;62942;52.462;10.846;2022-09-14T03:04:44;10.4;96
74484;SHT31;62942;52.462;10.846;2022-09-14T03:05:54;10.4;96
74484;SHT31;62942;52.462;10.846;2022-09-14T03:06:54;10.4;96
74484;SHT31;62942;52.462;10.846;2022-09-14T03:08:04;10.4;96
74484;SHT31;62942;52.462;10.846;2022-09-14T03:09:04;10.4;96
74484;SHT31;62942;52.462;10.846;2022-09-14T03:10:04;10.4;96.1
74484;SHT31;62942;52.462;10.846;2022-09-14T03:11:14;10.4;96.1
74484;SHT31;62942;52.462;10.846;2022-09-14T03:12:24;10.4;96
74484;SHT31;62942;52.462;10.846;2022-09-14T03:13:34;10.4;96
74484;SHT31;62942;52.462;10.846;2022-09-14T03:14:34;10.3;96
74484;SHT31;62942;52.462;10.846;2022-09-14T03:15:44;10.4;96
74484;SHT31;62942;52.462;10.846;2022-09-14T03:16:44;10.3;96
74484;SHT31;62942;52.462;10.846;2022-09-14T03:17:44;10.3;96
74484;SHT31;62942;52.462;10.846;2022-09-14T03:18:54;10.3;96
74484;SHT31;62942;52.462;10.846;2022-09-14T03:19:54;10.4;96
74484;SHT31;62942;52.462;10.846;2022-09-14T03:21:04;10.3;96.1
74484;SHT31;62942;52.462;10.846;2022-09-14T03:22:14;10.3;96
74484;SHT31;62942;52.462;10.846;2022-09-14T03:23:14;10.3;96.1
74484;SHT31;62942;52.462;10.846;2022-09-14T03:24:24;10.3;96
74484;SHT31;62942;52.462;10.846;2022-09-14T03:25:35;10.3;96
74484;SHT31;62942;52.462;10.846;2022-09-14T03:26:44;10.3;96
74484;SHT31;62942;52.462;10.846;2022-09-14T03:27:46;10.4;96
74484;SHT31;62942;52.462;10.846;2022-09-14T03:28:48;10.4;96.2
74484;SHT31;62942;52.462;10.846;2022-09-14T03:29:54;10.4;96.2
74484;SHT31;62942;52.462;10.846;2022-09-14T03:31:05;10.4;96.4
74484;SHT31;62942;52.462;10.846;2022-09-14T03:32:14;10.5;96.5
74484;SHT31;62942;52.462;10.846;2022-09-14T03:33:14;10.5;96.6
74484;SHT31;62942;52.462;10.846;2022-09-14T03:34:24;10.5;96.6
74484;SHT31;62942;52.462;10.846;2022-09-14T03:35:34;10.4;96.7
74484;SHT31;62942;52.462;10.846;2022-09-14T03:36:44;10.4;96.6
74484;SHT31;62942;52.462;10.846;2022-09-14T03:37:44;10.4;96.5
74484;SHT31;62942;52.462;10.846;2022-09-14T03:38:56;10.3;96.4
74484;SHT31;62942;52.462;10.846;2022-09-14T03:40:05;10.3;96.3
74484;SHT31;62942;52.462;10.846;2022-09-14T03:41:14;10.2;96.1
74484;SHT31;62942;52.462;10.846;2022-09-14T03:42:14;10.2;96
74484;SHT31;62942;52.462;10.846;2022-09-14T03:43:24;10.2;95.9
74484;SHT31;62942;52.462;10.846;2022-09-14T03:44:24;10.2;95.9
74484;SHT31;62942;52.462;10.846;2022-09-14T03:45:35;10.1;95.8
74484;SHT31;62942;52.462;10.846;2022-09-14T03:46:45;10.1;95.8
74484;SHT31;62942;52.462;10.846;2022-09-14T03:47:54;10.1;95.9
74484;SHT31;62942;52.462;10.846;2022-09-14T03:48:54;10.1;96
74484;SHT31;62942;52.462;10.846;2022-09-14T03:50:05;10.1;96
74484;SHT31;62942;52.462;10.846;2022-09-14T03:51:05;10.1;96
74484;SHT31;62942;52.462;10.846;2022-09-14T03:52:14;10.1;96
74484;SHT31;62942;52.462;10.846;2022-09-14T03:53:24;10;96
74484;SHT31;62942;52.462;10.846;2022-09-14T03:54:24;10;96
74484;SHT31;62942;52.462;10.846;2022-09-14T03:55:34;10;95.9
74484;SHT31;62942;52.462;10.846;2022-09-14T03:56:34;9.9;95.9
74484;SHT31;62942;52.462;10.846;2022-09-14T03:57:44;9.9;95.9
74484;SHT31;62942;52.462;10.846;2022-09-14T03:58:54;9.9;95.9
74484;SHT31;62942;52.462;10.846;2022-09-14T03:59:54;9.9;95.8
74484;SHT31;62942;52.462;10.846;2022-09-14T04:01:04;9.9;95.9
74484;SHT31;62942;52.462;10.846;2022-09-14T04:02:04;9.9;95.9
74484;SHT31;62942;52.462;10.846;2022-09-14T04:03:14;9.9;96
74484;SHT31;62942;52.462;10.846;2022-09-14T04:04:24;9.9;96.1
74484;SHT31;62942;52.462;10.846;2022-09-14T04:05:34;9.9;96.2
74484;SHT31;62942;52.462;10.846;2022-09-14T04:06:34;10;96.3
74484;SHT31;62942;52.462;10.846;2022-09-14T04:07:44;10;96.4
74484;SHT31;62942;52.462;10.846;2022-09-14T04:08:44;9.9;96.4
74484;SHT31;62942;52.462;10.846;2022-09-14T04:09:54;10;96.4
74484;SHT31;62942;52.462;10.846;2022-09-14T04:10:54;10;96.5
74484;SHT31;62942;52.462;10.846;2022-09-14T04:12:04;10;96.5
74484;SHT31;62942;52.462;10.846;2022-09-14T04:13:14;10;96.6
74484;SHT31;62942;52.462;10.846;2022-09-14T04:14:24;10;96.6
74484;SHT31;62942;52.462;10.846;2022-09-14T04:15:34;9.9;96.6
74484;SHT31;62942;52.462;10.846;2022-09-14T04:16:34;9.9;96.6
74484;SHT31;62942;52.462;10.846;2022-09-14T04:17:44;9.9;96.5
74484;SHT31;62942;52.462;10.846;2022-09-14T04:18:54;9.9;96.5
74484;SHT31;62942;52.462;10.846;2022-09-14T04:19:54;9.8;96.4
74484;SHT31;62942;52.462;10.846;2022-09-14T04:21:05;9.8;96.4
74484;SHT31;62942;52.462;10.846;2022-09-14T04:22:14;9.8;96.4
74484;SHT31;62942;52.462;10.846;2022-09-14T04:23:24;9.8;96.5
74484;SHT31;62942;52.462;10.846;2022-09-14T04:24:24;9.8;96.5
74484;SHT31;62942;52.462;10.846;2022-09-14T04:25:34;9.8;96.6
74484;SHT31;62942;52.462;10.846;2022-09-14T04:26:34;9.8;96.6
74484;SHT31;62942;52.462;10.846;2022-09-14T04:27:44;9.8;96.7
74484;SHT31;62942;52.462;10.846;2022-09-14T04:28:44;9.8;96.7
74484;SHT31;62942;52.462;10.846;2022-09-14T04:29:54;9.9;96.7
74484;SHT31;62942;52.462;10.846;2022-09-14T04:31:04;9.9;96.8
74484;SHT31;62942;52.462;10.846;2022-09-14T04:32:14;9.9;96.9
74484;SHT31;62942;52.462;10.846;2022-09-14T04:33:14;9.9;96.9
74484;SHT31;62942;52.462;10.846;2022-09-14T04:34:24;9.9;96.9
74484;SHT31;62942;52.462;10.846;2022-09-14T04:35:34;9.9;97
74484;SHT31;62942;52.462;10.846;2022-09-14T04:36:34;9.9;97
74484;SHT31;62942;52.462;10.846;2022-09-14T04:37:44;9.9;97
74484;SHT31;62942;52.462;10.846;2022-09-14T04:38:54;9.9;97
74484;SHT31;62942;52.462;10.846;2022-09-14T04:39:54;9.8;97
74484;SHT31;62942;52.462;10.846;2022-09-14T04:41:04;9.8;97
74484;SHT31;62942;52.462;10.846;2022-09-14T04:42:14;9.8;96.9
74484;SHT31;62942;52.462;10.846;2022-09-14T04:43:24;9.8;96.9
74484;SHT31;62942;52.462;10.846;2022-09-14T04:44:24;9.8;96.9
74484;SHT31;62942;52.462;10.846;2022-09-14T04:45:34;9.8;96.9
74484;SHT31;62942;52.462;10.846;2022-09-14T04:46:44;9.8;96.9
74484;SHT31;62942;52.462;10.846;2022-09-14T04:47:54;9.8;96.9
74484;SHT31;62942;52.462;10.846;2022-09-14T04:48:54;9.8;97
74484;SHT31;62942;52.462;10.846;2022-09-14T04:50:04;9.8;97
74484;SHT31;62942;52.462;10.846;2022-09-14T04:51:16;9.7;97
74484;SHT31;62942;52.462;10.846;2022-09-14T04:52:24;9.7;96.9
74484;SHT31;62942;52.462;10.846;2022-09-14T04:53:24;9.7;96.9
74484;SHT31;62942;52.462;10.846;2022-09-14T04:54:34;9.7;96.8
74484;SHT31;62942;52.462;10.846;2022-09-14T04:55:44;9.6;96.8
74484;SHT31;62942;52.462;10.846;2022-09-14T04:56:44;9.6;96.8
74484;SHT31;62942;52.462;10.846;2022-09-14T04:57:54;9.6;96.8
74484;SHT31;62942;52.462;10.846;2022-09-14T04:59:04;9.6;96.9
74484;SHT31;62942;52.462;10.846;2022-09-14T05:00:04;9.7;96.9
74484;SHT31;62942;52.462;10.846;2022-09-14T05:01:14;9.7;96.9
74484;SHT31;62942;52.462;10.846;2022-09-14T05:02:14;9.6;96.9
74484;SHT31;62942;52.462;10.846;2022-09-14T05:03:24;9.7;97
74484;SHT31;62942;52.462;10.846;2022-09-14T05:04:34;9.7;97
74484;SHT31;62942;52.462;10.846;2022-09-14T05:05:44;9.6;97
74484;SHT31;62942;52.462;10.846;2022-09-14T05:06:54;9.6;97.1
74484;SHT31;62942;52.462;10.846;2022-09-14T05:07:54;9.6;97.1
74484;SHT31;62942;52.462;10.846;2022-09-14T05:09:05;9.6;97.1
74484;SHT31;62942;52.462;10.846;2022-09-14T05:10:14;9.7;97.1
74484;SHT31;62942;52.462;10.846;2022-09-14T05:11:26;9.7;97.1
74484;SHT31;62942;52.462;10.846;2022-09-14T05:12:34;9.7;97.2
74484;SHT31;62942;52.462;10.846;2022-09-14T05:13:34;9.7;97.2
74484;SHT31;62942;52.462;10.846;2022-09-14T05:14:44;9.8;97.2
74484;SHT31;62942;52.462;10.846;2022-09-14T05:15:54;9.8;97.2
74484;SHT31;62942;52.462;10.846;2022-09-14T05:16:54;9.9;97.3
74484;SHT31;62942;52.462;10.846;2022-09-14T05:18:04;10;97.3
74484;SHT31;62942;52.462;10.846;2022-09-14T05:19:15;10;97.4
74484;SHT31;62942;52.462;10.846;2022-09-14T05:20:24;10;97.5
74484;SHT31;62942;52.462;10.846;2022-09-14T05:21:24;10.1;97.5
74484;SHT31;62942;52.462;10.846;2022-09-14T05:22:34;10.1;97.6
74484;SHT31;62942;52.462;10.846;2022-09-14T05:23:44;10.1;97.6
74484;SHT31;62942;52.462;10.846;2022-09-14T05:24:44;10.1;97.6
74484;SHT31;62942;52.462;10.846;2022-09-14T05:25:54;10.2;97.6
74484;SHT31;62942;52.462;10.846;2022-09-14T05:27:04;10.2;97.7
74484;SHT31;62942;52.462;10.846;2022-09-14T05:28:04;10.2;97.7
74484;SHT31;62942;52.462;10.846;2022-09-14T05:29:15;10.2;97.7
74484;SHT31;62942;52.462;10.846;2022-09-14T05:30:24;10.3;97.7
74484;SHT31;62942;52.462;10.846;2022-09-14T05:31:34;10.3;97.8
74484;SHT31;62942;52.462;10.846;2022-09-14T05:32:34;10.3;97.8
74484;SHT31;62942;52.462;10.846;2022-09-14T05:33:34;10.3;97.8
74484;SHT31;62942;52.462;10.846;2022-09-14T05:34:44;10.4;97.7
74484;SHT31;62942;52.462;10.846;2022-09-14T05:35:58;10.4;97.8
74484;SHT31;62942;52.462;10.846;2022-09-14T05:36:54;10.4;97.8
74484;SHT31;62942;52.462;10.846;2022-09-14T05:38:04;10.5;97.8
74484;SHT31;62942;52.462;10.846;2022-09-14T05:39:04;10.5;97.7
74484;SHT31;62942;52.462;10.846;2022-09-14T05:40:14;10.6;97.8
74484;SHT31;62942;52.462;10.846;2022-09-14T05:41:24;10.7;97.7
74484;SHT31;62942;52.462;10.846;2022-09-14T05:42:24;10.7;97.8
74484;SHT31;62942;52.462;10.846;2022-09-14T05:43:34;10.8;97.7
74484;SHT31;62942;52.462;10.846;2022-09-14T05:44:34;10.9;97.7
74484;SHT31;62942;52.462;10.846;2022-09-14T05:45:34;10.9;97.7
74484;SHT31;62942;52.462;10.846;2022-09-14T05:46:44;11;97.7
74484;SHT31;62942;52.462;10.846;2022-09-14T05:47:44;11.1;97.7
74484;SHT31;62942;52.462;10.846;2022-09-14T05:48:54;11.2;97.6
74484;SHT31;62942;52.462;10.846;2022-09-14T05:50:04;11.3;97.5
74484;SHT31;62942;52.462;10.846;2022-09-14T05:51:05;11.4;97.4
74484;SHT31;62942;52.462;10.846;2022-09-14T05:52:04;11.5;97.3
74484;SHT31;62942;52.462;10.846;2022-09-14T05:53:14;11.6;97.1
74484;SHT31;62942;52.462;10.846;2022-09-14T05:54:24;11.7;96.9
74484;SHT31;62942;52.462;10.846;2022-09-14T05:55:34;11.8;96.6
74484;SHT31;62942;52.462;10.846;2022-09-14T05:56:44;11.8;96.4
74484;SHT31;62942;52.462;10.846;2022-09-14T05:57:54;11.8;96.2
74484;SHT31;62942;52.462;10.846;2022-09-14T05:58:54;11.8;95.9
74484;SHT31;62942;52.462;10.846;2022-09-14T05:59:54;11.8;95.7
74484;SHT31;62942;52.462;10.846;2022-09-14T06:01:06;11.8;95.6
74484;SHT31;62942;52.462;10.846;2022-09-14T06:02:14;11.8;95.4
74484;SHT31;62942;52.462;10.846;2022-09-14T06:03:14;11.8;95.4
74484;SHT31;62942;52.462;10.846;2022-09-14T06:04:24;11.9;95.3
74484;SHT31;62942;52.462;10.846;2022-09-14T06:05:34;11.9;95.2
74484;SHT31;62942;52.462;10.846;2022-09-14T06:06:44;11.9;95.2
74484;SHT31;62942;52.462;10.846;2022-09-14T06:07:54;11.9;95.2
74484;SHT31;62942;52.462;10.846;2022-09-14T06:08:54;12;95.2
74484;SHT31;62942;52.462;10.846;2022-09-14T06:09:54;12;95.1
74484;SHT31;62942;52.462;10.846;2022-09-14T06:11:04;12;95.1
74484;SHT31;62942;52.462;10.846;2022-09-14T06:12:14;12.1;95
74484;SHT31;62942;52.462;10.846;2022-09-14T06:13:24;12.1;95
74484;SHT31;62942;52.462;10.846;2022-09-14T06:14:34;12.1;94.9
74484;SHT31;62942;52.462;10.846;2022-09-14T06:15:34;12.1;94.8
74484;SHT31;62942;52.462;10.846;2022-09-14T06:16:44;12.2;94.8
74484;SHT31;62942;52.462;10.846;2022-09-14T06:17:54;12.2;94.8
74484;SHT31;62942;52.462;10.846;2022-09-14T06:18:54;12.2;94.8
74484;SHT31;62942;52.462;10.846;2022-09-14T06:20:04;12.3;94.7
74484;SHT31;62942;52.462;10.846;2022-09-14T06:21:04;12.3;94.6
74484;SHT31;62942;52.462;10.846;2022-09-14T06:22:16;12.3;94.5
74484;SHT31;62942;52.462;10.846;2022-09-14T06:23:24;12.3;94.4
74484;SHT31;62942;52.462;10.846;2022-09-14T06:24:34;12.3;94.3
74484;SHT31;62942;52.462;10.846;2022-09-14T06:25:44;12.4;94.1
74484;SHT31;62942;52.462;10.846;2022-09-14T06:26:44;12.4;94
74484;SHT31;62942;52.462;10.846;2022-09-14T06:27:54;12.4;93.8
74484;SHT31;62942;52.462;10.846;2022-09-14T06:28:54;12.5;93.7
74484;SHT31;62942;52.462;10.846;2022-09-14T06:30:04;12.5;93.6
74484;SHT31;62942;52.462;10.846;2022-09-14T06:31:04;12.6;93.4
74484;SHT31;62942;52.462;10.846;2022-09-14T06:32:14;12.6;93.3
74484;SHT31;62942;52.462;10.846;2022-09-14T06:33:14;12.7;93.2
74484;SHT31;62942;52.462;10.846;2022-09-14T06:34:24;12.7;93.1
74484;SHT31;62942;52.462;10.846;2022-09-14T06:35:34;12.8;92.9
74484;SHT31;62942;52.462;10.846;2022-09-14T06:36:44;12.9;92.7
74484;SHT31;62942;52.462;10.846;2022-09-14T06:37:44;13;92.4
74484;SHT31;62942;52.462;10.846;2022-09-14T06:38:54;13.1;92.3
74484;SHT31;62942;52.462;10.846;2022-09-14T06:39:54;13.2;92.1
74484;SHT31;62942;52.462;10.846;2022-09-14T06:41:05;13.3;91.9
74484;SHT31;62942;52.462;10.846;2022-09-14T06:42:14;13.4;91.6
74484;SHT31;62942;52.462;10.846;2022-09-14T06:43:24;13.6;91.4
74484;SHT31;62942;52.462;10.846;2022-09-14T06:44:24;13.7;91.1
74484;SHT31;62942;52.462;10.846;2022-09-14T06:45:24;13.8;90.8
74484;SHT31;62942;52.462;10.846;2022-09-14T06:46:34;14;90.3
74484;SHT31;62942;52.462;10.846;2022-09-14T06:47:34;14.1;89.9
74484;SHT31;62942;52.462;10.846;2022-09-14T06:48:45;14.2;89.4
74484;SHT31;62942;52.462;10.846;2022-09-14T06:49:54;14.3;89
74484;SHT31;62942;52.462;10.846;2022-09-14T06:51:10;14.5;88.6
74484;SHT31;62942;52.462;10.846;2022-09-14T06:52:04;14.6;88.1
74484;SHT31;62942;52.462;10.846;2022-09-14T06:53:14;14.7;87.6
74484;SHT31;62942;52.462;10.846;2022-09-14T06:54:24;14.7;87.1
74484;SHT31;62942;52.462;10.846;2022-09-14T06:55:34;14.8;86.7
74484;SHT31;62942;52.462;10.846;2022-09-14T06:56:34;14.9;86.2
74484;SHT31;62942;52.462;10.846;2022-09-14T06:57:46;14.9;85.7
74484;SHT31;62942;52.462;10.846;2022-09-14T06:58:54;14.9;85.4
74484;SHT31;62942;52.462;10.846;2022-09-14T07:00:04;15;85.4
74484;SHT31;62942;52.462;10.846;2022-09-14T07:01:04;15.1;85.5
74484;SHT31;62942;52.462;10.846;2022-09-14T07:02:04;15.1;85.4
74484;SHT31;62942;52.462;10.846;2022-09-14T07:03:04;15.2;85.3
74484;SHT31;62942;52.462;10.846;2022-09-14T07:04:14;15.3;84.9
74484;SHT31;62942;52.462;10.846;2022-09-14T07:05:14;15.3;84.6
74484;SHT31;62942;52.462;10.846;2022-09-14T07:06:25;15.3;84.3
74484;SHT31;62942;52.462;10.846;2022-09-14T07:07:24;15.4;83.5
74484;SHT31;62942;52.462;10.846;2022-09-14T07:08:34;15.4;84.1
74484;SHT31;62942;52.462;10.846;2022-09-14T07:09:44;15.4;84
74484;SHT31;62942;52.462;10.846;2022-09-14T07:10:44;15.4;83.9
74484;SHT31;62942;52.462;10.846;2022-09-14T07:11:55;15.4;83.8
74484;SHT31;62942;52.462;10.846;2022-09-14T07:13:04;15.4;83.8
74484;SHT31;62942;52.462;10.846;2022-09-14T07:14:14;15.4;83.7